createdAt,value
2022-08-17T00:00:39.738Z,79.3
2022-08-17T00:01:20.171Z,79.3
2022-08-17T00:02:27.187Z,79.3
2022-08-17T00:03:17.578Z,79.3
2022-08-17T00:04:18.713Z,79.3
2022-08-17T00:05:17.232Z,79.4
2022-08-17T00:06:16.702Z,79.0
2022-08-17T00:07:17.173Z,79.1
2022-08-17T00:08:16.643Z,79.1
2022-08-17T00:09:19.571Z,79.1
2022-08-17T00:10:17.047Z,79.0
2022-08-17T00:11:16.497Z,79.2
2022-08-17T00:12:35.262Z,79.2
2022-08-17T00:13:16.857Z,79.2
2022-08-17T00:14:17.306Z,79.4
2022-08-17T00:15:16.735Z,79.4
2022-08-17T00:16:17.170Z,79.7
2022-08-17T00:17:16.619Z,79.9
2022-08-17T00:18:56.724Z,80.1
2022-08-17T00:19:16.507Z,80.0
2022-08-17T00:20:18.639Z,80.0
2022-08-17T00:21:25.104Z,80.2
2022-08-17T00:22:30.094Z,80.0
2022-08-17T00:23:16.436Z,80.1
2022-08-17T00:24:16.872Z,80.2
2022-08-17T00:25:17.301Z,80.1
2022-08-17T00:26:34.781Z,80.2
2022-08-17T00:27:17.228Z,80.3
2022-08-17T00:28:16.689Z,80.3
2022-08-17T00:29:20.371Z,80.3
2022-08-17T00:30:16.798Z,80.4
2022-08-17T00:31:17.215Z,80.3
2022-08-17T00:33:10.246Z,80.3
2022-08-17T00:33:17.326Z,80.1
2022-08-17T00:34:16.789Z,80.0
2022-08-17T00:35:17.242Z,80.1
2022-08-17T00:36:16.708Z,80.0
2022-08-17T00:37:17.178Z,80.1
2022-08-17T00:38:16.633Z,80.0
2022-08-17T00:39:17.067Z,80.1
2022-08-17T00:40:16.589Z,80.1
2022-08-17T00:41:19.092Z,80.1
2022-08-17T00:42:16.727Z,80.1
2022-08-17T00:43:17.171Z,80.1
2022-08-17T00:44:16.587Z,80.2
2022-08-17T00:45:17.021Z,80.2
2022-08-17T00:46:16.446Z,80.2
2022-08-17T00:47:16.891Z,80.3
2022-08-17T00:48:30.541Z,80.4
2022-08-17T00:49:17.243Z,80.4
2022-08-17T00:50:16.697Z,80.4
2022-08-17T00:51:17.153Z,80.4
2022-08-17T00:52:16.930Z,80.5
2022-08-17T00:53:17.392Z,80.5
2022-08-17T00:54:16.824Z,80.5
2022-08-17T00:55:17.247Z,80.5
2022-08-17T00:56:16.662Z,80.0
2022-08-17T00:57:17.092Z,80.0
2022-08-17T00:58:28.663Z,80.1
2022-08-17T00:59:17.270Z,80.0
2022-08-17T01:00:16.709Z,80.0
2022-08-17T01:01:22.123Z,80.1
2022-08-17T01:02:16.604Z,80.3
2022-08-17T01:03:17.054Z,80.4
2022-08-17T01:04:16.570Z,80.5
2022-08-17T01:05:18.914Z,80.6
2022-08-17T01:06:16.880Z,80.5
2022-08-17T01:07:16.413Z,80.5
2022-08-17T01:08:16.851Z,80.6
2022-08-17T01:09:17.283Z,80.6
2022-08-17T01:10:57.849Z,80.6
2022-08-17T01:11:17.161Z,80.7
2022-08-17T01:12:16.557Z,80.8
2022-08-17T01:13:17.000Z,80.8
2022-08-17T01:14:16.452Z,80.8
2022-08-17T01:15:16.908Z,80.8
2022-08-17T01:16:17.419Z,80.8
2022-08-17T01:17:16.864Z,81.0
2022-08-17T01:18:17.367Z,80.9
2022-08-17T01:19:16.837Z,80.8
2022-08-17T01:20:17.297Z,80.8
2022-08-17T01:21:16.794Z,80.9
2022-08-17T01:22:16.905Z,80.9
2022-08-17T01:23:21.180Z,81.0
2022-08-17T01:24:17.020Z,81.2
2022-08-17T01:25:16.462Z,81.2
2022-08-17T01:26:16.922Z,81.2
2022-08-17T01:27:20.742Z,81.2
2022-08-17T01:28:33.746Z,81.3
2022-08-17T01:29:16.663Z,81.3
2022-08-17T01:30:56.587Z,81.4
2022-08-17T01:31:16.644Z,81.4
2022-08-17T01:32:17.233Z,81.5
2022-08-17T01:33:16.687Z,81.6
2022-08-17T01:34:17.152Z,81.7
2022-08-17T01:35:16.644Z,81.7
2022-08-17T01:36:17.102Z,81.8
2022-08-17T01:37:16.582Z,81.5
2022-08-17T01:38:27.374Z,81.7
2022-08-17T01:39:16.810Z,81.8
2022-08-17T01:40:17.230Z,81.9
2022-08-17T01:41:16.708Z,81.9
2022-08-17T01:42:16.538Z,82.0
2022-08-17T01:43:16.966Z,82.1
2022-08-17T01:44:17.439Z,82.2
2022-08-17T01:45:16.924Z,82.2
2022-08-17T01:46:17.379Z,82.1
2022-08-17T01:47:17.790Z,82.3
2022-08-17T01:48:17.274Z,82.4
2022-08-17T01:49:16.716Z,82.5
2022-08-17T01:50:17.187Z,82.5
2022-08-17T01:51:16.656Z,82.6
2022-08-17T01:52:17.267Z,82.6
2022-08-17T01:53:16.686Z,82.8
2022-08-17T01:54:17.104Z,82.9
2022-08-17T01:55:16.548Z,83.1
2022-08-17T01:56:17.018Z,83.0
2022-08-17T01:57:16.431Z,83.3
2022-08-17T01:58:16.874Z,83.3
2022-08-17T01:59:17.376Z,83.7
2022-08-17T02:00:16.847Z,83.5
2022-08-17T02:01:17.385Z,83.5
2022-08-17T02:02:30.188Z,83.6
2022-08-17T02:03:16.991Z,83.6
2022-08-17T02:04:16.462Z,83.5
2022-08-17T02:05:16.917Z,83.5
2022-08-17T02:06:28.286Z,83.5
2022-08-17T02:07:17.708Z,83.5
2022-08-17T02:08:20.451Z,83.6
2022-08-17T02:09:17.390Z,83.5
2022-08-17T02:10:20.501Z,83.5
2022-08-17T02:11:16.943Z,83.5
2022-08-17T02:12:37.187Z,83.5
2022-08-17T02:13:17.183Z,83.5
2022-08-17T02:14:16.636Z,83.5
2022-08-17T02:15:17.126Z,83.5
2022-08-17T02:16:16.595Z,83.5
2022-08-17T02:17:17.053Z,83.5
2022-08-17T02:18:16.526Z,83.6
2022-08-17T02:19:16.992Z,83.6
2022-08-17T02:20:36.376Z,83.6
2022-08-17T02:21:16.920Z,83.7
2022-08-17T02:22:16.562Z,83.5
2022-08-17T02:23:16.998Z,83.5
2022-08-17T02:24:16.437Z,83.4
2022-08-17T02:25:16.871Z,83.5
2022-08-17T02:26:26.722Z,83.4
2022-08-17T02:27:17.229Z,83.3
2022-08-17T02:28:16.679Z,83.2
2022-08-17T02:29:17.116Z,83.1
2022-08-17T02:31:00.427Z,83.0
2022-08-17T02:31:17.085Z,82.9
2022-08-17T02:32:27.790Z,83.0
2022-08-17T02:33:20.440Z,83.1
2022-08-17T02:34:16.673Z,83.2
2022-08-17T02:35:20.114Z,83.3
2022-08-17T02:36:16.671Z,83.2
2022-08-17T02:37:17.147Z,83.3
2022-08-17T02:38:16.577Z,83.3
2022-08-17T02:39:17.007Z,83.2
2022-08-17T02:40:28.598Z,83.2
2022-08-17T02:41:17.323Z,83.2
2022-08-17T02:42:16.835Z,83.2
2022-08-17T02:43:17.315Z,83.2
2022-08-17T02:44:39.558Z,83.2
2022-08-17T02:45:16.559Z,83.3
2022-08-17T02:46:17.007Z,83.2
2022-08-17T02:47:16.477Z,83.1
2022-08-17T02:48:30.599Z,83.3
2022-08-17T02:49:17.250Z,83.3
2022-08-17T02:50:16.676Z,83.3
2022-08-17T02:51:16.470Z,83.3
2022-08-17T02:52:42.609Z,83.5
2022-08-17T02:53:16.834Z,83.5
2022-08-17T02:54:39.501Z,83.5
2022-08-17T02:55:17.003Z,83.5
2022-08-17T02:56:16.429Z,83.6
2022-08-17T02:57:16.922Z,83.7
2022-08-17T02:58:34.443Z,83.6
2022-08-17T02:59:17.213Z,83.7
2022-08-17T03:00:16.677Z,83.8
2022-08-17T03:01:17.311Z,83.9
2022-08-17T03:02:16.916Z,83.9
2022-08-17T03:03:17.379Z,83.9
2022-08-17T03:04:16.802Z,83.9
2022-08-17T03:05:17.253Z,83.9
2022-08-17T03:06:16.722Z,84.0
2022-08-17T03:07:17.145Z,84.0
2022-08-17T03:08:16.557Z,84.1
2022-08-17T03:09:16.989Z,84.0
2022-08-17T03:10:16.417Z,84.1
2022-08-17T03:11:16.842Z,84.1
2022-08-17T03:12:17.350Z,84.2
2022-08-17T03:13:16.850Z,84.2
2022-08-17T03:14:18.313Z,84.1
2022-08-17T03:15:16.752Z,84.1
2022-08-17T03:16:17.218Z,84.1
2022-08-17T03:17:17.686Z,84.1
2022-08-17T03:18:26.198Z,84.0
2022-08-17T03:19:16.719Z,83.9
2022-08-17T03:20:17.149Z,83.9
2022-08-17T03:21:16.596Z,84.1
2022-08-17T03:22:34.726Z,84.1
2022-08-17T03:23:17.998Z,84.2
2022-08-17T03:24:18.154Z,84.2
2022-08-17T03:25:21.256Z,84.2
2022-08-17T03:26:17.151Z,84.2
2022-08-17T03:27:16.607Z,84.2
2022-08-17T03:28:17.056Z,84.2
2022-08-17T03:29:16.528Z,84.2
2022-08-17T03:30:17.441Z,84.3
2022-08-17T03:31:16.753Z,84.2
2022-08-17T03:32:16.934Z,84.2
2022-08-17T03:33:17.402Z,84.2
2022-08-17T03:34:16.886Z,84.1
2022-08-17T03:35:19.024Z,84.1
2022-08-17T03:36:16.483Z,84.2
2022-08-17T03:37:16.940Z,84.1
2022-08-17T03:38:17.618Z,84.1
2022-08-17T03:39:17.044Z,84.0
2022-08-17T03:40:34.748Z,84.0
2022-08-17T03:41:16.995Z,84.0
2022-08-17T03:42:31.761Z,84.0
2022-08-17T03:43:17.009Z,83.9
2022-08-17T03:44:16.469Z,84.0
2022-08-17T03:45:16.933Z,83.9
2022-08-17T03:46:34.939Z,83.9
2022-08-17T03:47:16.501Z,84.0
2022-08-17T03:48:16.965Z,84.1
2022-08-17T03:49:17.439Z,84.1
2022-08-17T03:50:16.854Z,84.2
2022-08-17T03:51:17.295Z,84.2
2022-08-17T03:52:16.737Z,84.3
2022-08-17T03:53:17.171Z,84.2
2022-08-17T03:54:16.619Z,84.1
2022-08-17T03:55:17.068Z,83.9
2022-08-17T03:56:16.513Z,84.1
2022-08-17T03:57:16.950Z,84.2
2022-08-17T03:58:17.419Z,84.2
2022-08-17T03:59:22.663Z,84.2
2022-08-17T04:00:17.154Z,84.3
2022-08-17T04:01:16.727Z,84.2
2022-08-17T04:02:17.185Z,84.1
2022-08-17T04:03:16.676Z,84.1
2022-08-17T04:04:17.114Z,84.1
2022-08-17T04:05:16.547Z,84.1
2022-08-17T04:06:16.979Z,84.1
2022-08-17T04:07:17.672Z,84.2
2022-08-17T04:08:17.091Z,84.2
2022-08-17T04:09:17.124Z,84.2
2022-08-17T04:10:16.565Z,84.2
2022-08-17T04:11:17.019Z,84.2
2022-08-17T04:12:17.409Z,84.1
2022-08-17T04:13:25.652Z,84.2
2022-08-17T04:14:17.248Z,84.2
2022-08-17T04:15:16.721Z,84.3
2022-08-17T04:16:17.181Z,84.3
2022-08-17T04:17:16.681Z,84.2
2022-08-17T04:18:16.883Z,84.2
2022-08-17T04:19:17.311Z,84.2
2022-08-17T04:20:16.736Z,84.2
2022-08-17T04:21:17.172Z,84.3
2022-08-17T04:22:29.985Z,84.3
2022-08-17T04:23:17.695Z,84.2
2022-08-17T04:24:17.133Z,84.1
2022-08-17T04:25:16.631Z,84.1
2022-08-17T04:26:52.404Z,84.1
2022-08-17T04:27:16.610Z,84.0
2022-08-17T04:28:17.055Z,84.0
2022-08-17T04:29:16.509Z,84.0
2022-08-17T04:30:17.010Z,84.1
2022-08-17T04:31:16.494Z,84.0
2022-08-17T04:33:00.718Z,84.0
2022-08-17T04:33:17.283Z,83.9
2022-08-17T04:34:20.116Z,83.9
2022-08-17T04:35:16.601Z,83.8
2022-08-17T04:36:17.053Z,83.8
2022-08-17T04:37:16.525Z,83.7
2022-08-17T04:38:16.952Z,83.5
2022-08-17T04:39:17.379Z,83.5
2022-08-17T04:40:16.929Z,83.6
2022-08-17T04:41:17.400Z,83.7
2022-08-17T04:42:16.816Z,83.5
2022-08-17T04:43:19.014Z,83.5
2022-08-17T04:44:36.780Z,83.6
2022-08-17T04:45:17.150Z,83.6
2022-08-17T04:46:16.597Z,83.7
2022-08-17T04:47:17.035Z,83.6
2022-08-17T04:48:16.460Z,83.4
2022-08-17T04:49:16.878Z,83.3
2022-08-17T04:50:17.294Z,83.2
2022-08-17T04:51:16.721Z,83.0
2022-08-17T04:52:29.632Z,83.1
2022-08-17T04:53:17.192Z,82.8
2022-08-17T04:54:16.665Z,82.9
2022-08-17T04:55:17.143Z,82.7
2022-08-17T04:56:19.142Z,82.3
2022-08-17T04:57:16.661Z,82.2
2022-08-17T04:58:17.123Z,82.1
2022-08-17T04:59:16.629Z,82.0
2022-08-17T05:00:17.104Z,81.7
2022-08-17T05:01:24.497Z,81.7
2022-08-17T05:02:16.930Z,81.7
2022-08-17T05:03:17.359Z,81.6
2022-08-17T05:04:33.748Z,81.5
2022-08-17T05:05:16.712Z,81.5
2022-08-17T05:06:17.125Z,81.3
2022-08-17T05:07:24.685Z,81.2
2022-08-17T05:08:16.641Z,81.2
2022-08-17T05:09:17.123Z,81.1
2022-08-17T05:10:16.597Z,80.9
2022-08-17T05:11:17.071Z,80.7
2022-08-17T05:12:16.818Z,80.7
2022-08-17T05:13:17.310Z,80.4
2022-08-17T05:14:16.758Z,80.4
2022-08-17T05:15:19.560Z,80.3
2022-08-17T05:16:17.033Z,80.2
2022-08-17T05:17:16.460Z,80.1
2022-08-17T05:18:16.893Z,80.1
2022-08-17T05:19:17.331Z,80.0
2022-08-17T05:20:16.776Z,79.8
2022-08-17T05:21:17.214Z,79.8
2022-08-17T05:22:16.540Z,79.7
2022-08-17T05:23:16.959Z,79.7
2022-08-17T05:24:38.850Z,79.7
2022-08-17T05:25:16.949Z,79.6
2022-08-17T05:26:27.316Z,79.5
2022-08-17T05:27:19.691Z,79.3
2022-08-17T05:28:18.598Z,79.3
2022-08-17T05:29:17.301Z,79.4
2022-08-17T05:30:16.756Z,79.4
2022-08-17T05:31:17.228Z,79.5
2022-08-17T05:32:37.750Z,79.5
2022-08-17T05:33:16.601Z,79.4
2022-08-17T05:34:17.051Z,79.3
2022-08-17T05:35:16.471Z,78.9
2022-08-17T05:36:37.618Z,78.9
2022-08-17T05:37:17.356Z,78.8
2022-08-17T05:38:16.825Z,78.5
2022-08-17T05:39:17.646Z,78.4
2022-08-17T05:40:17.111Z,78.6
2022-08-17T05:41:16.573Z,78.5
2022-08-17T05:42:17.284Z,78.5
2022-08-17T05:43:16.749Z,78.4
2022-08-17T05:44:17.236Z,78.2
2022-08-17T05:45:55.022Z,77.8
2022-08-17T05:46:17.076Z,77.8
2022-08-17T05:47:16.501Z,77.8
2022-08-17T05:48:16.936Z,77.6
2022-08-17T05:49:17.356Z,77.8
2022-08-17T05:50:23.218Z,77.8
2022-08-17T05:51:16.432Z,77.5
2022-08-17T05:52:20.364Z,77.3
2022-08-17T05:53:16.873Z,77.3
2022-08-17T05:54:17.392Z,77.0
2022-08-17T05:55:16.841Z,76.8
2022-08-17T05:56:29.922Z,76.5
2022-08-17T05:57:21.120Z,76.4
2022-08-17T05:58:16.606Z,76.3
2022-08-17T05:59:17.084Z,76.3
2022-08-17T06:00:20.501Z,75.9
2022-08-17T06:01:17.071Z,75.7
2022-08-17T06:02:16.645Z,75.3
2022-08-17T06:03:17.059Z,75.1
2022-08-17T06:04:16.474Z,75.0
2022-08-17T06:05:16.917Z,74.6
2022-08-17T06:06:17.332Z,74.4
2022-08-17T06:07:16.775Z,74.3
2022-08-17T06:08:17.220Z,74.0
2022-08-17T06:09:26.745Z,73.7
2022-08-17T06:10:17.403Z,73.4
2022-08-17T06:11:20.441Z,72.9
2022-08-17T06:12:20.229Z,72.6
2022-08-17T06:13:16.960Z,72.3
2022-08-17T06:14:17.454Z,72.2
2022-08-17T06:15:16.904Z,71.7
2022-08-17T06:16:33.943Z,71.6
2022-08-17T06:17:17.031Z,71.1
2022-08-17T06:18:19.341Z,71.1
2022-08-17T06:19:16.782Z,70.9
2022-08-17T06:20:17.200Z,70.7
2022-08-17T06:21:16.629Z,70.6
2022-08-17T06:22:17.065Z,70.5
2022-08-17T06:23:16.512Z,70.8
2022-08-17T06:24:16.996Z,70.3
2022-08-17T06:25:16.461Z,70.2
2022-08-17T06:26:16.922Z,70.4
2022-08-17T06:27:17.393Z,70.2
2022-08-17T06:28:16.863Z,70.2
2022-08-17T06:29:19.056Z,70.2
2022-08-17T06:30:16.522Z,69.9
2022-08-17T06:31:16.953Z,69.8
2022-08-17T06:32:16.425Z,69.7
2022-08-17T06:33:16.899Z,68.8
2022-08-17T06:34:17.333Z,68.8
2022-08-17T06:35:16.750Z,68.8
2022-08-17T06:36:18.130Z,68.8
2022-08-17T06:37:16.577Z,68.3
2022-08-17T06:38:36.955Z,67.8
2022-08-17T06:39:17.005Z,66.7
2022-08-17T06:40:16.558Z,65.5
2022-08-17T06:41:17.035Z,65.3
2022-08-17T06:42:54.442Z,64.7
2022-08-17T06:43:16.893Z,63.2
2022-08-17T06:44:42.021Z,62.7
2022-08-17T06:45:16.770Z,61.5
2022-08-17T06:46:17.185Z,60.8
2022-08-17T06:47:29.243Z,60.8
2022-08-17T06:48:16.744Z,59.8
2022-08-17T06:49:17.184Z,59.6
2022-08-17T06:50:16.635Z,59.5
2022-08-17T06:51:17.111Z,59.2
2022-08-17T06:52:42.257Z,58.8
2022-08-17T06:53:17.401Z,58.6
2022-08-17T06:54:16.865Z,58.4
2022-08-17T06:55:19.102Z,57.4
2022-08-17T06:56:16.584Z,59.1
2022-08-17T06:57:17.030Z,59.2
2022-08-17T06:58:17.126Z,58.8
2022-08-17T06:59:16.588Z,59.3
2022-08-17T07:00:17.005Z,59.4
2022-08-17T07:01:16.636Z,58.7
2022-08-17T07:02:16.878Z,58.1
2022-08-17T07:03:17.304Z,57.5
2022-08-17T07:04:16.727Z,56.0
2022-08-17T07:05:17.149Z,54.9
2022-08-17T07:06:16.612Z,54.8
2022-08-17T07:07:17.080Z,53.7
2022-08-17T07:08:16.564Z,53.0
2022-08-17T07:09:17.018Z,52.8
2022-08-17T07:10:16.523Z,52.2
2022-08-17T07:11:16.990Z,51.8
2022-08-17T07:12:17.409Z,51.6
2022-08-17T07:13:16.880Z,51.7
2022-08-17T07:14:17.734Z,53.4
2022-08-17T07:15:17.158Z,53.7
2022-08-17T07:16:16.579Z,54.6
2022-08-17T07:17:17.035Z,55.1
2022-08-17T07:18:16.449Z,55.4
2022-08-17T07:19:16.900Z,54.2
2022-08-17T07:20:17.355Z,52.7
2022-08-17T07:21:21.773Z,53.0
2022-08-17T07:22:17.186Z,52.4
2022-08-17T07:23:16.657Z,51.5
2022-08-17T07:24:30.359Z,50.9
2022-08-17T07:25:21.093Z,50.5
2022-08-17T07:26:16.567Z,50.7
2022-08-17T07:27:17.022Z,52.2
2022-08-17T07:28:16.458Z,51.7
2022-08-17T07:29:18.077Z,50.6
2022-08-17T07:30:17.171Z,49.8
2022-08-17T07:31:16.632Z,50.0
2022-08-17T07:32:17.062Z,49.0
2022-08-17T07:33:16.498Z,49.1
2022-08-17T07:34:16.918Z,50.2
2022-08-17T07:35:17.359Z,50.5
2022-08-17T07:36:16.838Z,49.8
2022-08-17T07:37:17.341Z,49.8
2022-08-17T07:38:27.168Z,48.8
2022-08-17T07:39:16.775Z,48.3
2022-08-17T07:40:17.558Z,47.7
2022-08-17T07:41:17.065Z,47.7
2022-08-17T07:42:16.443Z,47.7
2022-08-17T07:43:23.724Z,47.6
2022-08-17T07:44:17.248Z,47.1
2022-08-17T07:45:16.709Z,47.2
2022-08-17T07:46:17.126Z,47.5
2022-08-17T07:47:16.551Z,47.1
2022-08-17T07:48:17.002Z,47.3
2022-08-17T07:49:16.452Z,47.0
2022-08-17T07:50:16.906Z,46.8
2022-08-17T07:51:17.356Z,46.9
2022-08-17T07:52:48.754Z,46.4
2022-08-17T07:53:17.316Z,46.1
2022-08-17T07:54:16.803Z,46.1
2022-08-17T07:55:17.276Z,45.9
2022-08-17T07:56:16.717Z,45.8
2022-08-17T07:57:17.191Z,45.8
2022-08-17T07:58:16.632Z,46.1
2022-08-17T07:59:17.064Z,46.1
2022-08-17T08:00:16.810Z,47.3
2022-08-17T08:01:18.011Z,46.8
2022-08-17T08:02:17.745Z,46.3
2022-08-17T08:03:17.186Z,47.7
2022-08-17T08:04:37.541Z,48.5
2022-08-17T08:05:29.906Z,49.5
2022-08-17T08:06:17.321Z,49.0
2022-08-17T08:07:16.810Z,48.8
2022-08-17T08:08:17.274Z,47.3
2022-08-17T08:09:16.756Z,45.7
2022-08-17T08:10:17.241Z,44.2
2022-08-17T08:11:16.670Z,43.5
2022-08-17T08:12:16.987Z,42.6
2022-08-17T08:13:16.400Z,42.9
2022-08-17T08:14:16.845Z,42.2
2022-08-17T08:15:17.265Z,42.3
2022-08-17T08:16:16.727Z,42.5
2022-08-17T08:17:17.147Z,42.4
2022-08-17T08:18:38.799Z,42.9
2022-08-17T08:19:21.236Z,43.2
2022-08-17T08:20:37.813Z,42.7
2022-08-17T08:21:17.281Z,42.3
2022-08-17T08:22:16.495Z,42.3
2022-08-17T08:23:16.956Z,42.3
2022-08-17T08:24:17.419Z,42.5
2022-08-17T08:25:16.871Z,42.4
2022-08-17T08:26:19.024Z,42.6
2022-08-17T08:27:16.453Z,42.5
2022-08-17T08:28:16.875Z,42.8
2022-08-17T08:29:17.314Z,42.7
2022-08-17T08:30:16.738Z,41.8
2022-08-17T08:31:17.188Z,41.8
2022-08-17T08:32:17.002Z,41.8
2022-08-17T08:33:16.435Z,41.1
2022-08-17T08:34:44.952Z,41.5
2022-08-17T08:35:17.429Z,41.4
2022-08-17T08:36:56.488Z,40.8
2022-08-17T08:37:32.833Z,40.9
2022-08-17T08:38:17.001Z,40.6
2022-08-17T08:39:16.445Z,40.6
2022-08-17T08:40:16.871Z,40.1
2022-08-17T08:41:17.288Z,40.1
2022-08-17T08:42:17.177Z,40.0
2022-08-17T08:43:16.626Z,39.8
2022-08-17T08:44:17.091Z,39.7
2022-08-17T08:45:16.508Z,39.6
2022-08-17T08:46:19.946Z,39.2
2022-08-17T08:47:17.413Z,39.4
2022-08-17T08:48:54.003Z,38.8
2022-08-17T08:49:17.343Z,38.1
2022-08-17T08:50:30.367Z,37.7
2022-08-17T08:51:16.883Z,38.1
2022-08-17T08:52:16.647Z,38.3
2022-08-17T08:53:17.115Z,38.5
2022-08-17T08:54:26.517Z,38.5
2022-08-17T08:55:17.281Z,38.7
2022-08-17T08:56:16.693Z,38.5
2022-08-17T08:57:29.359Z,38.0
2022-08-17T08:58:30.836Z,38.0
2022-08-17T08:59:17.303Z,37.8
2022-08-17T09:00:16.729Z,37.3
2022-08-17T09:01:17.788Z,37.4
2022-08-17T09:02:16.842Z,37.0
2022-08-17T09:03:17.279Z,37.2
2022-08-17T09:04:25.903Z,36.9
2022-08-17T09:05:16.553Z,36.8
2022-08-17T09:06:33.344Z,37.6
2022-08-17T09:07:17.256Z,37.4
2022-08-17T09:08:16.714Z,37.1
2022-08-17T09:09:17.212Z,37.9
2022-08-17T09:10:16.666Z,38.4
2022-08-17T09:11:17.090Z,37.4
2022-08-17T09:12:17.039Z,36.6
2022-08-17T09:13:16.451Z,36.6
2022-08-17T09:14:28.230Z,36.3
2022-08-17T09:15:17.139Z,36.9
2022-08-17T09:16:16.573Z,36.3
2022-08-17T09:17:18.656Z,35.8
2022-08-17T09:19:02.008Z,35.1
2022-08-17T09:19:16.686Z,34.6
2022-08-17T09:20:28.625Z,34.9
2022-08-17T09:21:18.474Z,34.8
2022-08-17T09:22:17.231Z,34.9
2022-08-17T09:23:16.684Z,35.7
2022-08-17T09:24:21.056Z,35.8
2022-08-17T09:25:16.479Z,35.8
2022-08-17T09:26:16.939Z,36.8
2022-08-17T09:27:17.355Z,37.0
2022-08-17T09:28:16.794Z,37.2
2022-08-17T09:29:17.248Z,36.7
2022-08-17T09:30:16.826Z,36.6
2022-08-17T09:31:17.401Z,36.7
2022-08-17T09:32:16.754Z,36.1
2022-08-17T09:33:17.217Z,35.6
2022-08-17T09:34:16.699Z,35.4
2022-08-17T09:35:17.189Z,35.7
2022-08-17T09:36:16.624Z,35.8
2022-08-17T09:37:17.093Z,36.0
2022-08-17T09:38:16.547Z,36.0
2022-08-17T09:39:17.005Z,36.4
2022-08-17T09:40:16.690Z,36.3
2022-08-17T09:41:17.172Z,35.8
2022-08-17T09:42:16.569Z,35.5
2022-08-17T09:43:16.986Z,35.4
2022-08-17T09:44:23.916Z,34.9
2022-08-17T09:45:16.468Z,34.6
2022-08-17T09:46:16.895Z,34.5
2022-08-17T09:47:17.373Z,34.9
2022-08-17T09:48:18.360Z,34.4
2022-08-17T09:49:17.638Z,34.5
2022-08-17T09:50:17.344Z,34.9
2022-08-17T09:51:16.877Z,34.6
2022-08-17T09:52:18.175Z,35.4
2022-08-17T09:53:16.689Z,35.0
2022-08-17T09:54:38.401Z,34.3
2022-08-17T09:55:17.128Z,35.0
2022-08-17T09:56:16.566Z,34.6
2022-08-17T09:57:30.931Z,35.6
2022-08-17T09:58:16.874Z,35.2
2022-08-17T09:59:17.442Z,35.3
2022-08-17T10:00:17.528Z,35.1
2022-08-17T10:01:17.123Z,34.5
2022-08-17T10:02:17.257Z,34.8
2022-08-17T10:03:16.723Z,35.4
2022-08-17T10:04:20.538Z,34.9
2022-08-17T10:05:17.256Z,34.3
2022-08-17T10:06:22.464Z,34.1
2022-08-17T10:07:16.923Z,34.3
2022-08-17T10:08:21.994Z,35.6
2022-08-17T10:09:16.441Z,36.4
2022-08-17T10:10:17.007Z,36.4
2022-08-17T10:11:16.468Z,35.6
2022-08-17T10:12:17.850Z,34.8
2022-08-17T10:13:18.442Z,35.0
2022-08-17T10:14:36.166Z,34.7
2022-08-17T10:15:17.644Z,35.3
2022-08-17T10:16:17.096Z,35.0
2022-08-17T10:17:16.610Z,34.7
2022-08-17T10:18:17.055Z,34.0
2022-08-17T10:19:16.519Z,33.7
2022-08-17T10:20:16.990Z,34.4
2022-08-17T10:21:16.439Z,34.4
2022-08-17T10:22:32.839Z,33.4
2022-08-17T10:23:16.976Z,32.8
2022-08-17T10:24:16.442Z,32.2
2022-08-17T10:25:30.175Z,32.4
2022-08-17T10:26:16.768Z,32.5
2022-08-17T10:27:17.198Z,33.1
2022-08-17T10:28:20.673Z,32.5
2022-08-17T10:29:16.900Z,32.4
2022-08-17T10:30:17.366Z,33.1
2022-08-17T10:31:35.627Z,33.3
2022-08-17T10:32:17.366Z,33.5
2022-08-17T10:33:16.852Z,33.6
2022-08-17T10:34:17.310Z,33.5
2022-08-17T10:35:16.762Z,32.8
2022-08-17T10:36:17.222Z,33.0
2022-08-17T10:37:16.691Z,34.2
2022-08-17T10:38:24.318Z,34.7
2022-08-17T10:39:17.104Z,33.9
2022-08-17T10:40:16.782Z,34.0
2022-08-17T10:41:17.264Z,33.4
2022-08-17T10:42:30.578Z,33.3
2022-08-17T10:43:16.523Z,33.0
2022-08-17T10:44:36.857Z,34.3
2022-08-17T10:45:16.927Z,34.8
2022-08-17T10:46:30.803Z,35.0
2022-08-17T10:47:17.054Z,34.4
2022-08-17T10:48:16.525Z,33.8
2022-08-17T10:49:17.014Z,34.0
2022-08-17T10:50:16.511Z,34.4
2022-08-17T10:51:16.951Z,35.6
2022-08-17T10:52:16.828Z,36.2
2022-08-17T10:53:20.095Z,36.2
2022-08-17T10:54:16.506Z,35.7
2022-08-17T10:55:16.939Z,35.6
2022-08-17T10:56:17.382Z,35.6
2022-08-17T10:57:16.812Z,35.6
2022-08-17T10:58:17.248Z,35.6
2022-08-17T10:59:16.670Z,36.5
2022-08-17T11:00:17.159Z,37.0
2022-08-17T11:01:16.661Z,36.7
2022-08-17T11:02:16.440Z,36.9
2022-08-17T11:03:16.900Z,36.8
2022-08-17T11:04:18.194Z,36.7
2022-08-17T11:05:16.666Z,36.6
2022-08-17T11:06:17.163Z,36.8
2022-08-17T11:07:16.590Z,36.6
2022-08-17T11:08:17.586Z,36.8
2022-08-17T11:09:17.049Z,37.6
2022-08-17T11:10:16.469Z,37.1
2022-08-17T11:11:16.935Z,37.1
2022-08-17T11:12:16.558Z,37.3
2022-08-17T11:13:16.975Z,37.3
2022-08-17T11:14:17.446Z,37.2
2022-08-17T11:15:16.919Z,36.7
2022-08-17T11:16:17.451Z,36.7
2022-08-17T11:17:17.054Z,36.6
2022-08-17T11:18:16.512Z,36.9
2022-08-17T11:19:16.980Z,36.8
2022-08-17T11:20:16.446Z,37.1
2022-08-17T11:21:16.909Z,36.5
2022-08-17T11:22:17.947Z,36.2
2022-08-17T11:23:17.407Z,36.0
2022-08-17T11:24:16.834Z,34.9
2022-08-17T11:25:17.271Z,34.4
2022-08-17T11:26:16.696Z,34.5
2022-08-17T11:27:17.112Z,34.9
2022-08-17T11:28:18.194Z,35.0
2022-08-17T11:29:16.672Z,35.3
2022-08-17T11:30:17.572Z,35.9
2022-08-17T11:31:17.030Z,36.2
2022-08-17T11:32:16.837Z,36.1
2022-08-17T11:33:21.292Z,36.3
2022-08-17T11:34:18.487Z,36.2
2022-08-17T11:35:16.968Z,37.3
2022-08-17T11:36:17.417Z,37.7
2022-08-17T11:37:16.848Z,37.2
2022-08-17T11:38:17.270Z,36.1
2022-08-17T11:39:16.988Z,35.4
2022-08-17T11:40:16.592Z,35.3
2022-08-17T11:41:17.103Z,35.3
2022-08-17T11:42:16.561Z,35.2
2022-08-17T11:43:17.000Z,35.7
2022-08-17T11:44:16.456Z,35.2
2022-08-17T11:45:32.000Z,35.5
2022-08-17T11:46:17.255Z,35.4
2022-08-17T11:47:16.711Z,35.0
2022-08-17T11:48:28.945Z,34.8
2022-08-17T11:49:16.689Z,35.2
2022-08-17T11:50:17.174Z,35.3
2022-08-17T11:51:16.637Z,35.5
2022-08-17T11:52:16.771Z,35.3
2022-08-17T11:53:17.240Z,35.7
2022-08-17T11:54:33.541Z,36.0
2022-08-17T11:55:35.647Z,36.0
2022-08-17T11:56:16.656Z,36.3
2022-08-17T11:57:17.082Z,36.8
2022-08-17T11:58:16.531Z,37.4
2022-08-17T11:59:16.991Z,37.8
2022-08-17T12:00:16.448Z,38.0
2022-08-17T12:01:16.915Z,37.9
2022-08-17T12:02:17.332Z,37.9
2022-08-17T12:03:16.902Z,37.8
2022-08-17T12:04:17.462Z,38.1
2022-08-17T12:05:17.036Z,38.7
2022-08-17T12:06:16.514Z,38.9
2022-08-17T12:07:16.957Z,39.0
2022-08-17T12:08:17.388Z,39.1
2022-08-17T12:09:16.824Z,39.1
2022-08-17T12:10:17.257Z,39.1
2022-08-17T12:11:54.986Z,40.0
2022-08-17T12:12:17.123Z,40.2
2022-08-17T12:13:17.392Z,40.2
2022-08-17T12:14:26.970Z,39.9
2022-08-17T12:15:16.712Z,39.4
2022-08-17T12:16:17.192Z,39.3
2022-08-17T12:17:39.959Z,38.9
2022-08-17T12:18:17.122Z,39.1
2022-08-17T12:19:16.582Z,39.4
2022-08-17T12:20:17.053Z,39.5
2022-08-17T12:21:18.478Z,39.6
2022-08-17T12:22:17.109Z,39.9
2022-08-17T12:23:16.581Z,40.1
2022-08-17T12:24:17.023Z,40.3
2022-08-17T12:25:16.453Z,39.7
2022-08-17T12:26:16.889Z,39.1
2022-08-17T12:27:47.687Z,39.6
2022-08-17T12:28:20.371Z,40.1
2022-08-17T12:29:35.345Z,40.1
2022-08-17T12:30:16.962Z,40.7
2022-08-17T12:31:17.427Z,40.9
2022-08-17T12:32:17.238Z,40.9
2022-08-17T12:33:27.689Z,40.7
2022-08-17T12:34:16.566Z,40.5
2022-08-17T12:35:16.998Z,40.4
2022-08-17T12:36:16.455Z,40.8
2022-08-17T12:37:16.875Z,40.8
2022-08-17T12:38:32.896Z,40.9
2022-08-17T12:39:21.631Z,40.9
2022-08-17T12:40:17.354Z,41.0
2022-08-17T12:41:16.784Z,40.9
2022-08-17T12:42:16.750Z,40.2
2022-08-17T12:43:17.205Z,40.5
2022-08-17T12:44:16.647Z,40.7
2022-08-17T12:45:17.098Z,40.9
2022-08-17T12:46:18.926Z,40.9
2022-08-17T12:47:23.088Z,40.9
2022-08-17T12:48:16.755Z,40.5
2022-08-17T12:49:17.215Z,40.7
2022-08-17T12:50:30.146Z,40.3
2022-08-17T12:51:16.655Z,39.7
2022-08-17T12:52:16.649Z,39.8
2022-08-17T12:53:17.062Z,39.6
2022-08-17T12:54:16.491Z,39.5
2022-08-17T12:55:16.918Z,39.2
2022-08-17T12:56:17.334Z,39.2
2022-08-17T12:57:16.771Z,39.4
2022-08-17T12:58:17.248Z,39.2
2022-08-17T12:59:28.731Z,39.7
2022-08-17T13:00:16.564Z,39.6
2022-08-17T13:01:17.161Z,39.5
2022-08-17T13:02:16.757Z,39.2
2022-08-17T13:03:17.244Z,38.6
2022-08-17T13:04:16.717Z,38.7
2022-08-17T13:05:17.146Z,38.7
2022-08-17T13:06:16.642Z,38.8
2022-08-17T13:07:17.075Z,39.0
2022-08-17T13:08:16.500Z,39.0
2022-08-17T13:09:17.298Z,39.3
2022-08-17T13:10:16.713Z,38.8
2022-08-17T13:11:17.143Z,38.9
2022-08-17T13:12:17.027Z,39.2
2022-08-17T13:13:16.512Z,39.0
2022-08-17T13:14:16.963Z,39.0
2022-08-17T13:15:17.477Z,38.9
2022-08-17T13:16:16.970Z,39.0
2022-08-17T13:17:16.454Z,38.9
2022-08-17T13:18:16.922Z,38.7